sensor_id;sensor_type;location;lat;lon;timestamp;temperature;humidity
51579;DHT22;47998;53.242;6.386;2023-03-14T00:02:07;9.50;99.90
51579;DHT22;47998;53.242;6.386;2023-03-14T00:04:33;9.50;99.90
51579;DHT22;47998;53.242;6.386;2023-03-14T00:06:58;9.50;99.90
51579;DHT22;47998;53.242;6.386;2023-03-14T00:09:24;9.50;99.90
51579;DHT22;47998;53.242;6.386;2023-03-14T00:11:53;9.60;99.90
51579;DHT22;47998;53.242;6.386;2023-03-14T00:14:19;9.60;99.90
51579;DHT22;47998;53.242;6.386;2023-03-14T00:16:47;9.70;99.90
51579;DHT22;47998;53.242;6.386;2023-03-14T00:19:13;9.70;99.90
51579;DHT22;47998;53.242;6.386;2023-03-14T00:21:39;9.70;99.90
51579;DHT22;47998;53.242;6.386;2023-03-14T00:24:05;9.70;99.90
51579;DHT22;47998;53.242;6.386;2023-03-14T00:26:31;9.70;99.90
51579;DHT22;47998;53.242;6.386;2023-03-14T00:28:57;9.80;99.90
51579;DHT22;47998;53.242;6.386;2023-03-14T00:31:23;9.80;99.90
51579;DHT22;47998;53.242;6.386;2023-03-14T00:33:52;9.70;99.90
51579;DHT22;47998;53.242;6.386;2023-03-14T00:36:18;9.60;99.90
51579;DHT22;47998;53.242;6.386;2023-03-14T00:38:47;9.60;99.90
51579;DHT22;47998;53.242;6.386;2023-03-14T00:41:16;9.50;99.90
51579;DHT22;47998;53.242;6.386;2023-03-14T00:43:42;9.50;99.90
51579;DHT22;47998;53.242;6.386;2023-03-14T00:46:09;9.50;99.90
51579;DHT22;47998;53.242;6.386;2023-03-14T00:48:35;9.50;99.90
51579;DHT22;47998;53.242;6.386;2023-03-14T00:51:06;9.30;99.90
51579;DHT22;47998;53.242;6.386;2023-03-14T00:53:35;9.40;99.90
51579;DHT22;47998;53.242;6.386;2023-03-14T00:56:03;9.40;99.90
51579;DHT22;47998;53.242;6.386;2023-03-14T00:58:29;9.40;99.90
51579;DHT22;47998;53.242;6.386;2023-03-14T01:00:55;9.40;99.90
51579;DHT22;47998;53.242;6.386;2023-03-14T01:03:21;9.60;99.90
51579;DHT22;47998;53.242;6.386;2023-03-14T01:05:47;9.60;99.90
51579;DHT22;47998;53.242;6.386;2023-03-14T01:08:12;9.60;99.90
51579;DHT22;47998;53.242;6.386;2023-03-14T01:10:40;9.60;99.90
51579;DHT22;47998;53.242;6.386;2023-03-14T01:13:06;9.60;99.90
51579;DHT22;47998;53.242;6.386;2023-03-14T01:15:33;9.50;99.90
51579;DHT22;47998;53.242;6.386;2023-03-14T01:17:59;9.50;99.90
51579;DHT22;47998;53.242;6.386;2023-03-14T01:20:25;9.60;99.90
51579;DHT22;47998;53.242;6.386;2023-03-14T01:22:50;9.60;99.90
51579;DHT22;47998;53.242;6.386;2023-03-14T01:25:17;9.60;99.90
51579;DHT22;47998;53.242;6.386;2023-03-14T01:27:43;9.60;99.90
51579;DHT22;47998;53.242;6.386;2023-03-14T01:30:11;9.70;99.90
51579;DHT22;47998;53.242;6.386;2023-03-14T01:32:37;9.80;99.90
51579;DHT22;47998;53.242;6.386;2023-03-14T01:35:04;9.90;99.90
51579;DHT22;47998;53.242;6.386;2023-03-14T01:37:30;9.90;99.90
51579;DHT22;47998;53.242;6.386;2023-03-14T01:39:55;10.00;99.90
51579;DHT22;47998;53.242;6.386;2023-03-14T01:42:21;10.10;99.90
51579;DHT22;47998;53.242;6.386;2023-03-14T01:44:53;10.10;99.90
51579;DHT22;47998;53.242;6.386;2023-03-14T01:47:20;10.10;99.90
51579;DHT22;47998;53.242;6.386;2023-03-14T01:49:48;10.10;99.90
51579;DHT22;47998;53.242;6.386;2023-03-14T01:52:21;10.20;99.90
51579;DHT22;47998;53.242;6.386;2023-03-14T01:54:51;10.20;99.90
51579;DHT22;47998;53.242;6.386;2023-03-14T01:57:39;10.20;99.90
51579;DHT22;47998;53.242;6.386;2023-03-14T02:00:14;10.10;99.90
51579;DHT22;47998;53.242;6.386;2023-03-14T02:02:46;10.00;99.90
51579;DHT22;47998;53.242;6.386;2023-03-14T02:05:15;10.00;99.90
51579;DHT22;47998;53.242;6.386;2023-03-14T02:07:53;9.90;99.90
51579;DHT22;47998;53.242;6.386;2023-03-14T02:10:22;9.80;99.90
51579;DHT22;47998;53.242;6.386;2023-03-14T02:12:50;9.50;99.90
51579;DHT22;47998;53.242;6.386;2023-03-14T02:15:18;9.30;99.90
51579;DHT22;47998;53.242;6.386;2023-03-14T02:17:45;9.20;99.90
51579;DHT22;47998;53.242;6.386;2023-03-14T02:22:52;9.20;99.90
51579;DHT22;47998;53.242;6.386;2023-03-14T02:27:59;9.20;99.90
51579;DHT22;47998;53.242;6.386;2023-03-14T02:30:28;9.10;99.90
51579;DHT22;47998;53.242;6.386;2023-03-14T02:32:59;9.10;99.90
51579;DHT22;47998;53.242;6.386;2023-03-14T02:35:29;8.90;99.90
51579;DHT22;47998;53.242;6.386;2023-03-14T02:40:32;8.70;99.90
51579;DHT22;47998;53.242;6.386;2023-03-14T02:42:58;8.80;99.90
51579;DHT22;47998;53.242;6.386;2023-03-14T02:47:54;8.70;99.90
51579;DHT22;47998;53.242;6.386;2023-03-14T02:50:24;8.70;99.90
51579;DHT22;47998;53.242;6.386;2023-03-14T02:52:51;8.60;99.90
51579;DHT22;47998;53.242;6.386;2023-03-14T02:55:21;8.60;99.90
51579;DHT22;47998;53.242;6.386;2023-03-14T02:57:47;8.60;99.90
51579;DHT22;47998;53.242;6.386;2023-03-14T03:00:13;8.60;99.90
51579;DHT22;47998;53.242;6.386;2023-03-14T03:02:40;8.70;99.90
51579;DHT22;47998;53.242;6.386;2023-03-14T03:05:06;8.70;99.90
51579;DHT22;47998;53.242;6.386;2023-03-14T03:07:32;8.70;99.90
51579;DHT22;47998;53.242;6.386;2023-03-14T03:09:58;8.70;99.90
51579;DHT22;47998;53.242;6.386;2023-03-14T03:12:24;8.60;99.90
51579;DHT22;47998;53.242;6.386;2023-03-14T03:14:50;8.60;99.90
51579;DHT22;47998;53.242;6.386;2023-03-14T03:17:16;8.60;99.90
51579;DHT22;47998;53.242;6.386;2023-03-14T03:19:42;8.50;99.90
51579;DHT22;47998;53.242;6.386;2023-03-14T03:22:08;8.50;99.90
51579;DHT22;47998;53.242;6.386;2023-03-14T03:24:33;8.40;99.90
51579;DHT22;47998;53.242;6.386;2023-03-14T03:26:59;8.40;99.90
51579;DHT22;47998;53.242;6.386;2023-03-14T03:29:25;8.40;99.90
51579;DHT22;47998;53.242;6.386;2023-03-14T03:31:51;8.40;99.90
51579;DHT22;47998;53.242;6.386;2023-03-14T03:34:17;8.40;99.90
51579;DHT22;47998;53.242;6.386;2023-03-14T03:36:43;8.40;99.90
51579;DHT22;47998;53.242;6.386;2023-03-14T03:39:08;8.40;99.90
51579;DHT22;47998;53.242;6.386;2023-03-14T03:41:34;8.50;99.90
51579;DHT22;47998;53.242;6.386;2023-03-14T03:44:00;8.50;99.90
51579;DHT22;47998;53.242;6.386;2023-03-14T03:46:26;8.50;99.90
51579;DHT22;47998;53.242;6.386;2023-03-14T03:48:56;8.40;99.90
51579;DHT22;47998;53.242;6.386;2023-03-14T03:51:22;8.50;99.90
51579;DHT22;47998;53.242;6.386;2023-03-14T03:53:47;8.50;99.90
51579;DHT22;47998;53.242;6.386;2023-03-14T03:56:13;8.50;99.90
51579;DHT22;47998;53.242;6.386;2023-03-14T03:58:39;8.50;99.90
51579;DHT22;47998;53.242;6.386;2023-03-14T04:01:05;8.50;99.90
51579;DHT22;47998;53.242;6.386;2023-03-14T04:03:32;8.50;99.90
51579;DHT22;47998;53.242;6.386;2023-03-14T04:06:12;8.50;99.90
51579;DHT22;47998;53.242;6.386;2023-03-14T04:08:38;8.50;99.90
51579;DHT22;47998;53.242;6.386;2023-03-14T04:11:06;8.60;99.90
51579;DHT22;47998;53.242;6.386;2023-03-14T04:13:31;8.50;99.90
51579;DHT22;47998;53.242;6.386;2023-03-14T04:15:57;8.50;99.90
51579;DHT22;47998;53.242;6.386;2023-03-14T04:18:23;8.50;99.90
51579;DHT22;47998;53.242;6.386;2023-03-14T04:20:54;8.50;99.90
51579;DHT22;47998;53.242;6.386;2023-03-14T04:23:21;8.50;99.90
51579;DHT22;47998;53.242;6.386;2023-03-14T04:25:50;8.40;99.90
51579;DHT22;47998;53.242;6.386;2023-03-14T04:28:16;8.50;99.90
51579;DHT22;47998;53.242;6.386;2023-03-14T04:30:42;8.40;99.90
51579;DHT22;47998;53.242;6.386;2023-03-14T04:33:08;8.40;99.90
51579;DHT22;47998;53.242;6.386;2023-03-14T04:35:34;8.40;99.90
51579;DHT22;47998;53.242;6.386;2023-03-14T04:38:00;8.40;99.90
51579;DHT22;47998;53.242;6.386;2023-03-14T04:40:26;8.40;99.90
51579;DHT22;47998;53.242;6.386;2023-03-14T04:42:52;8.30;99.90
51579;DHT22;47998;53.242;6.386;2023-03-14T04:45:17;8.30;99.90
51579;DHT22;47998;53.242;6.386;2023-03-14T04:47:43;8.40;99.90
51579;DHT22;47998;53.242;6.386;2023-03-14T04:50:13;8.40;99.90
51579;DHT22;47998;53.242;6.386;2023-03-14T04:52:38;8.40;99.90
51579;DHT22;47998;53.242;6.386;2023-03-14T04:55:07;8.40;99.90
51579;DHT22;47998;53.242;6.386;2023-03-14T04:57:33;8.50;99.90
51579;DHT22;47998;53.242;6.386;2023-03-14T04:59:58;8.40;99.90
51579;DHT22;47998;53.242;6.386;2023-03-14T05:02:24;8.40;99.90
51579;DHT22;47998;53.242;6.386;2023-03-14T05:04:50;8.30;99.90
51579;DHT22;47998;53.242;6.386;2023-03-14T05:07:16;8.30;99.90
51579;DHT22;47998;53.242;6.386;2023-03-14T05:09:41;8.30;99.90
51579;DHT22;47998;53.242;6.386;2023-03-14T05:12:07;8.40;99.90
51579;DHT22;47998;53.242;6.386;2023-03-14T05:14:33;8.30;99.90
51579;DHT22;47998;53.242;6.386;2023-03-14T05:17:01;8.40;99.90
51579;DHT22;47998;53.242;6.386;2023-03-14T05:19:27;8.30;99.90
51579;DHT22;47998;53.242;6.386;2023-03-14T05:21:53;8.30;99.90
51579;DHT22;47998;53.242;6.386;2023-03-14T05:24:19;8.40;99.90
51579;DHT22;47998;53.242;6.386;2023-03-14T05:26:45;8.30;99.90
51579;DHT22;47998;53.242;6.386;2023-03-14T05:29:10;8.30;99.90
51579;DHT22;47998;53.242;6.386;2023-03-14T05:31:38;8.40;99.90
51579;DHT22;47998;53.242;6.386;2023-03-14T05:34:04;8.30;99.90
51579;DHT22;47998;53.242;6.386;2023-03-14T05:36:30;8.40;99.90
51579;DHT22;47998;53.242;6.386;2023-03-14T05:38:56;8.40;99.90
51579;DHT22;47998;53.242;6.386;2023-03-14T05:41:22;8.30;99.90
51579;DHT22;47998;53.242;6.386;2023-03-14T05:43:48;8.30;99.90
51579;DHT22;47998;53.242;6.386;2023-03-14T05:46:13;8.20;99.90
51579;DHT22;47998;53.242;6.386;2023-03-14T05:48:39;8.20;99.90
51579;DHT22;47998;53.242;6.386;2023-03-14T05:51:05;8.10;99.90
51579;DHT22;47998;53.242;6.386;2023-03-14T05:53:31;8.30;99.90
51579;DHT22;47998;53.242;6.386;2023-03-14T05:55:57;8.20;99.90
51579;DHT22;47998;53.242;6.386;2023-03-14T05:58:23;8.30;99.90
51579;DHT22;47998;53.242;6.386;2023-03-14T06:00:50;8.10;99.90
51579;DHT22;47998;53.242;6.386;2023-03-14T06:03:16;8.10;99.90
51579;DHT22;47998;53.242;6.386;2023-03-14T06:05:41;8.30;99.90
51579;DHT22;47998;53.242;6.386;2023-03-14T06:08:07;8.30;99.90
51579;DHT22;47998;53.242;6.386;2023-03-14T06:10:37;8.30;99.90
51579;DHT22;47998;53.242;6.386;2023-03-14T06:13:03;8.30;99.90
51579;DHT22;47998;53.242;6.386;2023-03-14T06:15:29;8.00;99.90
51579;DHT22;47998;53.242;6.386;2023-03-14T06:17:55;7.40;99.90
51579;DHT22;47998;53.242;6.386;2023-03-14T06:20:21;6.20;99.90
51579;DHT22;47998;53.242;6.386;2023-03-14T06:22:47;6.70;99.90
51579;DHT22;47998;53.242;6.386;2023-03-14T06:25:13;6.50;99.90
51579;DHT22;47998;53.242;6.386;2023-03-14T06:27:38;6.40;99.90
51579;DHT22;47998;53.242;6.386;2023-03-14T06:30:05;6.40;99.90
51579;DHT22;47998;53.242;6.386;2023-03-14T06:32:31;5.40;99.90
51579;DHT22;47998;53.242;6.386;2023-03-14T06:34:57;5.50;99.90
51579;DHT22;47998;53.242;6.386;2023-03-14T06:37:27;6.30;99.90
51579;DHT22;47998;53.242;6.386;2023-03-14T06:39:54;4.50;99.90
51579;DHT22;47998;53.242;6.386;2023-03-14T06:42:19;4.50;99.90
51579;DHT22;47998;53.242;6.386;2023-03-14T06:44:45;4.10;99.90
51579;DHT22;47998;53.242;6.386;2023-03-14T06:47:12;5.30;99.90
51579;DHT22;47998;53.242;6.386;2023-03-14T06:49:37;3.80;99.90
51579;DHT22;47998;53.242;6.386;2023-03-14T06:52:03;5.20;99.90
51579;DHT22;47998;53.242;6.386;2023-03-14T06:54:29;5.00;99.90
51579;DHT22;47998;53.242;6.386;2023-03-14T06:56:55;3.50;99.90
51579;DHT22;47998;53.242;6.386;2023-03-14T06:59:21;4.60;99.90
51579;DHT22;47998;53.242;6.386;2023-03-14T07:01:47;3.60;99.90
51579;DHT22;47998;53.242;6.386;2023-03-14T07:04:13;4.50;99.90
51579;DHT22;47998;53.242;6.386;2023-03-14T07:06:39;4.40;99.90
51579;DHT22;47998;53.242;6.386;2023-03-14T07:09:10;4.20;99.90
51579;DHT22;47998;53.242;6.386;2023-03-14T07:11:36;4.50;99.90
51579;DHT22;47998;53.242;6.386;2023-03-14T07:14:02;4.20;99.90
51579;DHT22;47998;53.242;6.386;2023-03-14T07:16:28;3.80;99.90
51579;DHT22;47998;53.242;6.386;2023-03-14T07:18:57;2.80;99.90
51579;DHT22;47998;53.242;6.386;2023-03-14T07:21:23;4.20;99.90
51579;DHT22;47998;53.242;6.386;2023-03-14T07:23:49;4.00;99.90
51579;DHT22;47998;53.242;6.386;2023-03-14T07:26:14;4.10;99.90
51579;DHT22;47998;53.242;6.386;2023-03-14T07:28:41;2.90;99.90
51579;DHT22;47998;53.242;6.386;2023-03-14T07:31:07;2.90;99.90
51579;DHT22;47998;53.242;6.386;2023-03-14T07:33:33;4.30;99.90
51579;DHT22;47998;53.242;6.386;2023-03-14T07:35:59;3.00;99.90
51579;DHT22;47998;53.242;6.386;2023-03-14T07:38:24;3.00;99.90
51579;DHT22;47998;53.242;6.386;2023-03-14T07:40:55;3.30;99.90
51579;DHT22;47998;53.242;6.386;2023-03-14T07:43:23;3.90;99.90
51579;DHT22;47998;53.242;6.386;2023-03-14T07:45:51;4.10;99.90
51579;DHT22;47998;53.242;6.386;2023-03-14T07:48:19;4.50;99.90
51579;DHT22;47998;53.242;6.386;2023-03-14T07:50:48;4.00;99.90
51579;DHT22;47998;53.242;6.386;2023-03-14T07:53:15;3.70;99.90
51579;DHT22;47998;53.242;6.386;2023-03-14T07:55:40;3.50;99.90
51579;DHT22;47998;53.242;6.386;2023-03-14T07:58:07;4.50;99.90
51579;DHT22;47998;53.242;6.386;2023-03-14T08:00:33;4.40;99.90
51579;DHT22;47998;53.242;6.386;2023-03-14T08:02:59;3.50;99.90
51579;DHT22;47998;53.242;6.386;2023-03-14T08:05:24;4.00;99.90
51579;DHT22;47998;53.242;6.386;2023-03-14T08:07:50;4.10;99.90
51579;DHT22;47998;53.242;6.386;2023-03-14T08:10:16;3.80;99.90
51579;DHT22;47998;53.242;6.386;2023-03-14T08:12:54;3.60;99.90
51579;DHT22;47998;53.242;6.386;2023-03-14T08:15:23;3.60;99.90
51579;DHT22;47998;53.242;6.386;2023-03-14T08:17:50;4.40;99.90
51579;DHT22;47998;53.242;6.386;2023-03-14T08:20:24;4.30;99.90
51579;DHT22;47998;53.242;6.386;2023-03-14T08:22:50;4.60;99.90
51579;DHT22;47998;53.242;6.386;2023-03-14T08:25:16;4.10;99.90
51579;DHT22;47998;53.242;6.386;2023-03-14T08:27:44;3.80;99.90
51579;DHT22;47998;53.242;6.386;2023-03-14T08:30:12;4.30;99.90
51579;DHT22;47998;53.242;6.386;2023-03-14T08:32:38;4.30;99.90
51579;DHT22;47998;53.242;6.386;2023-03-14T08:35:05;4.40;99.90
51579;DHT22;47998;53.242;6.386;2023-03-14T08:37:32;4.90;99.90
51579;DHT22;47998;53.242;6.386;2023-03-14T08:39:58;4.60;99.90
51579;DHT22;47998;53.242;6.386;2023-03-14T08:42:24;4.90;99.90
51579;DHT22;47998;53.242;6.386;2023-03-14T08:44:51;4.60;99.90
51579;DHT22;47998;53.242;6.386;2023-03-14T08:47:17;5.20;99.90
51579;DHT22;47998;53.242;6.386;2023-03-14T08:49:43;4.40;99.90
51579;DHT22;47998;53.242;6.386;2023-03-14T08:52:09;4.80;99.90
51579;DHT22;47998;53.242;6.386;2023-03-14T08:54:37;4.40;99.90
51579;DHT22;47998;53.242;6.386;2023-03-14T08:57:03;4.90;99.90
51579;DHT22;47998;53.242;6.386;2023-03-14T08:59:29;4.60;99.90
51579;DHT22;47998;53.242;6.386;2023-03-14T09:01:55;5.20;99.90
51579;DHT22;47998;53.242;6.386;2023-03-14T09:04:24;5.10;99.90
51579;DHT22;47998;53.242;6.386;2023-03-14T09:06:50;5.20;99.90
51579;DHT22;47998;53.242;6.386;2023-03-14T09:09:15;5.30;99.90
51579;DHT22;47998;53.242;6.386;2023-03-14T09:11:41;5.40;99.90
51579;DHT22;47998;53.242;6.386;2023-03-14T09:14:09;5.40;99.90
51579;DHT22;47998;53.242;6.386;2023-03-14T09:16:35;5.20;99.90
51579;DHT22;47998;53.242;6.386;2023-03-14T09:19:01;5.10;99.90
51579;DHT22;47998;53.242;6.386;2023-03-14T09:21:27;4.90;99.90
51579;DHT22;47998;53.242;6.386;2023-03-14T09:23:53;5.10;99.90
51579;DHT22;47998;53.242;6.386;2023-03-14T09:26:19;5.00;99.90
51579;DHT22;47998;53.242;6.386;2023-03-14T09:28:45;5.20;99.90
51579;DHT22;47998;53.242;6.386;2023-03-14T09:31:12;5.10;99.90
51579;DHT22;47998;53.242;6.386;2023-03-14T09:33:38;4.80;99.90
51579;DHT22;47998;53.242;6.386;2023-03-14T09:36:04;4.90;99.90
51579;DHT22;47998;53.242;6.386;2023-03-14T09:38:33;5.00;99.90
51579;DHT22;47998;53.242;6.386;2023-03-14T09:41:03;5.10;99.90
51579;DHT22;47998;53.242;6.386;2023-03-14T09:43:36;4.90;99.90
51579;DHT22;47998;53.242;6.386;2023-03-14T09:46:05;4.60;99.90
51579;DHT22;47998;53.242;6.386;2023-03-14T09:48:33;4.60;99.90
51579;DHT22;47998;53.242;6.386;2023-03-14T09:51:10;4.60;99.90
51579;DHT22;47998;53.242;6.386;2023-03-14T09:53:45;4.80;99.90
51579;DHT22;47998;53.242;6.386;2023-03-14T09:56:23;4.80;99.90
51579;DHT22;47998;53.242;6.386;2023-03-14T09:58:56;4.50;99.90
51579;DHT22;47998;53.242;6.386;2023-03-14T10:01:26;4.50;99.90
51579;DHT22;47998;53.242;6.386;2023-03-14T10:03:58;4.70;99.90
51579;DHT22;47998;53.242;6.386;2023-03-14T10:06:26;4.80;99.90
51579;DHT22;47998;53.242;6.386;2023-03-14T10:08:56;4.80;99.90
51579;DHT22;47998;53.242;6.386;2023-03-14T10:11:23;5.20;99.90
51579;DHT22;47998;53.242;6.386;2023-03-14T10:16:35;6.00;99.90
51579;DHT22;47998;53.242;6.386;2023-03-14T10:19:04;6.00;99.90
51579;DHT22;47998;53.242;6.386;2023-03-14T10:21:31;6.10;99.90
51579;DHT22;47998;53.242;6.386;2023-03-14T10:24:26;5.90;99.90
51579;DHT22;47998;53.242;6.386;2023-03-14T10:26:54;5.90;99.90
51579;DHT22;47998;53.242;6.386;2023-03-14T10:29:23;5.90;99.90
51579;DHT22;47998;53.242;6.386;2023-03-14T10:32:06;5.90;99.90
51579;DHT22;47998;53.242;6.386;2023-03-14T10:34:37;6.40;99.90
51579;DHT22;47998;53.242;6.386;2023-03-14T10:37:18;6.80;99.90
51579;DHT22;47998;53.242;6.386;2023-03-14T10:39:52;7.20;99.90
51579;DHT22;47998;53.242;6.386;2023-03-14T10:42:39;7.20;99.90
51579;DHT22;47998;53.242;6.386;2023-03-14T10:45:35;6.60;99.90
51579;DHT22;47998;53.242;6.386;2023-03-14T10:48:36;6.10;99.90
51579;DHT22;47998;53.242;6.386;2023-03-14T10:56:07;7.40;99.90
51579;DHT22;47998;53.242;6.386;2023-03-14T10:58:41;7.80;99.90
51579;DHT22;47998;53.242;6.386;2023-03-14T11:04:15;8.00;99.90
51579;DHT22;47998;53.242;6.386;2023-03-14T11:29:28;6.50;99.90
51579;DHT22;47998;53.242;6.386;2023-03-14T11:32:08;7.00;99.90
51579;DHT22;47998;53.242;6.386;2023-03-14T11:34:51;7.20;99.90
51579;DHT22;47998;53.242;6.386;2023-03-14T11:37:33;7.50;99.90
51579;DHT22;47998;53.242;6.386;2023-03-14T11:40:08;7.80;99.90
51579;DHT22;47998;53.242;6.386;2023-03-14T11:42:38;8.00;99.90
51579;DHT22;47998;53.242;6.386;2023-03-14T11:45:15;8.30;99.90
51579;DHT22;47998;53.242;6.386;2023-03-14T11:47:45;7.80;99.90
51579;DHT22;47998;53.242;6.386;2023-03-14T11:50:25;8.00;99.90
51579;DHT22;47998;53.242;6.386;2023-03-14T11:53:19;8.30;99.90
51579;DHT22;47998;53.242;6.386;2023-03-14T11:55:47;7.80;99.90
51579;DHT22;47998;53.242;6.386;2023-03-14T11:58:34;6.90;99.90
51579;DHT22;47998;53.242;6.386;2023-03-14T12:01:07;6.90;99.90
51579;DHT22;47998;53.242;6.386;2023-03-14T12:04:02;7.20;99.90
51579;DHT22;47998;53.242;6.386;2023-03-14T12:09:03;6.80;99.90
51579;DHT22;47998;53.242;6.386;2023-03-14T12:11:51;6.60;99.90
51579;DHT22;47998;53.242;6.386;2023-03-14T12:14:23;6.40;99.90
51579;DHT22;47998;53.242;6.386;2023-03-14T12:16:57;6.40;99.90
51579;DHT22;47998;53.242;6.386;2023-03-14T12:24:37;7.90;99.90
51579;DHT22;47998;53.242;6.386;2023-03-14T12:27:05;7.90;99.90
51579;DHT22;47998;53.242;6.386;2023-03-14T12:29:58;7.60;99.90
51579;DHT22;47998;53.242;6.386;2023-03-14T12:32:25;7.20;99.90
51579;DHT22;47998;53.242;6.386;2023-03-14T12:34:51;6.80;99.90
51579;DHT22;47998;53.242;6.386;2023-03-14T12:40:20;6.50;99.90
51579;DHT22;47998;53.242;6.386;2023-03-14T12:43:01;6.90;99.90
51579;DHT22;47998;53.242;6.386;2023-03-14T12:45:36;6.80;99.90
51579;DHT22;47998;53.242;6.386;2023-03-14T12:50:53;6.10;99.90
51579;DHT22;47998;53.242;6.386;2023-03-14T12:56:11;6.50;99.90
51579;DHT22;47998;53.242;6.386;2023-03-14T13:01:33;6.50;99.90
51579;DHT22;47998;53.242;6.386;2023-03-14T13:04:09;6.90;99.90
51579;DHT22;47998;53.242;6.386;2023-03-14T13:06:53;7.50;99.90
51579;DHT22;47998;53.242;6.386;2023-03-14T13:12:12;7.40;99.90
51579;DHT22;47998;53.242;6.386;2023-03-14T13:14:44;7.50;99.90
51579;DHT22;47998;53.242;6.386;2023-03-14T13:17:14;7.40;99.90
51579;DHT22;47998;53.242;6.386;2023-03-14T13:19:44;7.50;99.90
51579;DHT22;47998;53.242;6.386;2023-03-14T13:22:24;7.80;99.90
51579;DHT22;47998;53.242;6.386;2023-03-14T13:25:05;7.90;99.90
51579;DHT22;47998;53.242;6.386;2023-03-14T13:27:33;7.50;99.90
51579;DHT22;47998;53.242;6.386;2023-03-14T13:30:15;7.20;99.90
51579;DHT22;47998;53.242;6.386;2023-03-14T13:32:44;7.30;99.90
51579;DHT22;47998;53.242;6.386;2023-03-14T13:35:29;7.80;99.90
51579;DHT22;47998;53.242;6.386;2023-03-14T13:38:03;7.60;99.90
51579;DHT22;47998;53.242;6.386;2023-03-14T13:40:33;7.60;99.90
51579;DHT22;47998;53.242;6.386;2023-03-14T13:43:06;7.70;99.90
51579;DHT22;47998;53.242;6.386;2023-03-14T13:45:52;7.80;99.90
51579;DHT22;47998;53.242;6.386;2023-03-14T13:48:19;8.00;99.90
51579;DHT22;47998;53.242;6.386;2023-03-14T13:50:48;7.80;99.90
51579;DHT22;47998;53.242;6.386;2023-03-14T13:53:16;7.20;99.90
51579;DHT22;47998;53.242;6.386;2023-03-14T13:55:43;6.90;99.90
51579;DHT22;47998;53.242;6.386;2023-03-14T13:58:29;6.60;99.90
51579;DHT22;47998;53.242;6.386;2023-03-14T14:01:10;6.80;99.90
51579;DHT22;47998;53.242;6.386;2023-03-14T14:03:40;7.10;99.90
51579;DHT22;47998;53.242;6.386;2023-03-14T14:06:35;6.70;99.90
51579;DHT22;47998;53.242;6.386;2023-03-14T14:09:25;6.40;99.90
51579;DHT22;47998;53.242;6.386;2023-03-14T14:12:07;6.20;99.90
51579;DHT22;47998;53.242;6.386;2023-03-14T14:15:03;6.10;99.90
51579;DHT22;47998;53.242;6.386;2023-03-14T14:17:40;6.00;99.90
51579;DHT22;47998;53.242;6.386;2023-03-14T14:22:52;5.80;99.90
51579;DHT22;47998;53.242;6.386;2023-03-14T14:25:18;5.60;99.90
51579;DHT22;47998;53.242;6.386;2023-03-14T14:27:48;5.50;99.90
51579;DHT22;47998;53.242;6.386;2023-03-14T14:32:44;6.30;99.90
51579;DHT22;47998;53.242;6.386;2023-03-14T14:35:22;6.80;99.90
51579;DHT22;47998;53.242;6.386;2023-03-14T14:37:49;6.70;99.90
51579;DHT22;47998;53.242;6.386;2023-03-14T14:40:26;7.10;99.90
51579;DHT22;47998;53.242;6.386;2023-03-14T14:42:53;7.20;99.90
51579;DHT22;47998;53.242;6.386;2023-03-14T14:45:23;7.10;99.90
51579;DHT22;47998;53.242;6.386;2023-03-14T14:47:50;6.40;99.90
51579;DHT22;47998;53.242;6.386;2023-03-14T14:52:57;6.00;99.90
51579;DHT22;47998;53.242;6.386;2023-03-14T14:55:38;6.50;99.90
51579;DHT22;47998;53.242;6.386;2023-03-14T14:58:28;6.60;99.90
51579;DHT22;47998;53.242;6.386;2023-03-14T15:01:04;6.80;99.90
51579;DHT22;47998;53.242;6.386;2023-03-14T15:03:32;6.50;99.90
51579;DHT22;47998;53.242;6.386;2023-03-14T15:05:59;6.00;99.90
51579;DHT22;47998;53.242;6.386;2023-03-14T15:08:26;5.70;99.90
51579;DHT22;47998;53.242;6.386;2023-03-14T15:10:52;5.40;99.90
51579;DHT22;47998;53.242;6.386;2023-03-14T15:13:18;5.10;99.90
51579;DHT22;47998;53.242;6.386;2023-03-14T15:15:44;5.10;99.90
51579;DHT22;47998;53.242;6.386;2023-03-14T15:18:13;5.00;99.90
51579;DHT22;47998;53.242;6.386;2023-03-14T15:20:39;5.20;99.90
51579;DHT22;47998;53.242;6.386;2023-03-14T15:23:13;5.50;99.90
51579;DHT22;47998;53.242;6.386;2023-03-14T15:25:40;6.10;99.90
51579;DHT22;47998;53.242;6.386;2023-03-14T15:28:19;6.50;99.90
51579;DHT22;47998;53.242;6.386;2023-03-14T15:30:50;6.70;99.90
51579;DHT22;47998;53.242;6.386;2023-03-14T15:33:17;6.70;99.90
51579;DHT22;47998;53.242;6.386;2023-03-14T15:35:43;6.60;99.90
51579;DHT22;47998;53.242;6.386;2023-03-14T15:38:19;6.30;99.90
51579;DHT22;47998;53.242;6.386;2023-03-14T15:40:48;6.40;99.90
51579;DHT22;47998;53.242;6.386;2023-03-14T15:43:14;6.50;99.90
51579;DHT22;47998;53.242;6.386;2023-03-14T15:45:40;6.70;99.90
51579;DHT22;47998;53.242;6.386;2023-03-14T15:48:13;6.40;99.90
51579;DHT22;47998;53.242;6.386;2023-03-14T15:50:39;5.70;99.90
51579;DHT22;47998;53.242;6.386;2023-03-14T15:53:05;5.40;99.90
51579;DHT22;47998;53.242;6.386;2023-03-14T15:55:31;5.10;99.90
51579;DHT22;47998;53.242;6.386;2023-03-14T15:57:57;4.90;99.90
51579;DHT22;47998;53.242;6.386;2023-03-14T16:00:24;5.00;99.90
51579;DHT22;47998;53.242;6.386;2023-03-14T16:02:50;4.90;99.90
51579;DHT22;47998;53.242;6.386;2023-03-14T16:05:16;4.90;99.90
51579;DHT22;47998;53.242;6.386;2023-03-14T16:07:44;4.90;99.90
51579;DHT22;47998;53.242;6.386;2023-03-14T16:10:11;4.90;99.90
51579;DHT22;47998;53.242;6.386;2023-03-14T16:12:37;5.00;99.90
51579;DHT22;47998;53.242;6.386;2023-03-14T16:15:03;4.80;99.90
51579;DHT22;47998;53.242;6.386;2023-03-14T16:17:29;4.10;99.90
51579;DHT22;47998;53.242;6.386;2023-03-14T16:19:55;3.80;99.90
51579;DHT22;47998;53.242;6.386;2023-03-14T16:22:20;3.70;99.90
51579;DHT22;47998;53.242;6.386;2023-03-14T16:24:46;3.70;99.90
51579;DHT22;47998;53.242;6.386;2023-03-14T16:27:12;3.90;99.90
51579;DHT22;47998;53.242;6.386;2023-03-14T16:29:38;4.30;99.90
51579;DHT22;47998;53.242;6.386;2023-03-14T16:32:04;4.90;99.90
51579;DHT22;47998;53.242;6.386;2023-03-14T16:34:30;5.30;99.90
51579;DHT22;47998;53.242;6.386;2023-03-14T16:36:56;5.40;99.90
51579;DHT22;47998;53.242;6.386;2023-03-14T16:39:22;5.40;99.90
51579;DHT22;47998;53.242;6.386;2023-03-14T16:41:47;5.20;99.90
51579;DHT22;47998;53.242;6.386;2023-03-14T16:44:13;4.90;99.90
51579;DHT22;47998;53.242;6.386;2023-03-14T16:46:39;4.80;99.90
51579;DHT22;47998;53.242;6.386;2023-03-14T16:49:06;4.80;99.90
51579;DHT22;47998;53.242;6.386;2023-03-14T16:51:31;4.80;99.90
51579;DHT22;47998;53.242;6.386;2023-03-14T16:53:57;4.60;99.90
51579;DHT22;47998;53.242;6.386;2023-03-14T16:56:24;4.40;99.90
51579;DHT22;47998;53.242;6.386;2023-03-14T16:58:50;4.20;99.90
51579;DHT22;47998;53.242;6.386;2023-03-14T17:01:16;4.10;99.90
51579;DHT22;47998;53.242;6.386;2023-03-14T17:03:45;4.10;99.90
51579;DHT22;47998;53.242;6.386;2023-03-14T17:06:12;4.20;99.90
51579;DHT22;47998;53.242;6.386;2023-03-14T17:08:39;4.10;99.90
51579;DHT22;47998;53.242;6.386;2023-03-14T17:11:05;3.60;99.90